X  Lukk Metar værinformasjon om luftfart     EHKD De Kooy Airport
Temperatur
61°F Temperatur
54°F Duggpunkt
77% Luftfuktighet



Vind
21 MPT
34 KM/T
9 M/S
18 KNP



210°
SSV
Nåværende forhold

Stort sett spredte skyer Stort sett spredte skyer
Trykk 1004.06 (hPa) - 29.65 (inHg)
Sikt 6 (mil) - 9.7 (km)
Flyplass
Flyplass-kode EHKD

Plassering: De Kooy Airport
Avstand: 34 (mi)

Metar:
EHKD 141255Z AUTO 21018KT 180V240 9999 SCT018 BKN021 OVC041 16/12 Q1004 WHT TEMPO 4500 -DZRA FEW008 SCT012

Tid: 14-06-2024 14:55 CEST